Mackinac Express — WDI9130 — position and weather

sailwx.info

Track history (hours):
 
Tides and Currents Weather Stations Pressure Air Temp Water Temp Dewpoint Dewpoint Depression Visibility Wind Speed Wind Dir Waves Ship Positions

Mackinac Express

Owner: STAR LINE - MACKINAC ISLAND PASS SERVICE, Saint Ignac, MI. More information available from US FCC via Universal Licensing System and Coast Guard Vessel Documentation Center.

Last reported at 2017-Nov-17 20:19 UTC. Time now 2017-Nov-17 21:14 UTC.
Position N 45°52' W 084°43'.

MMSI: 367745540.

Date/timePositionNaut miles runAvg speedWind from/ knotsBaromVisibWave heightAir tempDewpointWater temp
2017-Nov-17 20:19N 45°52' W 084°43'5 4.6
2017-Nov-17 19:18N 45°51' W 084°37'5 3.0
2017-Nov-17 17:48N 45°52' W 084°43'5 4.7
2017-Nov-17 16:51N 45°51' W 084°37'5 4.4
2017-Nov-17 15:48N 45°52' W 084°43'5 4.7
2017-Nov-17 14:49N 45°51' W 084°37'4 4.3
2017-Nov-17 13:48N 45°52' W 084°43'4 4.8
2017-Nov-17 12:52N 45°51' W 084°37'5 0.3
2017-Nov-16 22:18N 45°52' W 084°43'5 4.6
2017-Nov-16 21:19N 45°51' W 084°37'4 4.3
2017-Nov-16 20:19N 45°52' W 084°43'4 4.3
2017-Nov-16 19:19N 45°51' W 084°37'5 2.9
2017-Nov-16 17:45N 45°52' W 084°43'5 5.2
2017-Nov-16 16:53N 45°51' W 084°37'4 4.0
2017-Nov-16 15:49N 45°52' W 084°43'4 4.4
2017-Nov-16 14:51N 45°51' W 084°37'4 4.1
2017-Nov-16 13:48N 45°52' W 084°43'4 3.8
2017-Nov-16 12:48N 45°51' W 084°38'4 0.3
2017-Nov-15 22:14N 45°52' W 084°43'418.2
2017-Nov-15 22:00N 45°51' W 084°37'0 0.1
2017-Nov-15 21:18N 45°51' W 084°37'4 4.2
2017-Nov-15 20:16N 45°52' W 084°43'4 4.7
2017-Nov-15 19:19N 45°51' W 084°37'5 3.1
2017-Nov-15 17:48N 45°52' W 084°43'513.6
2017-Nov-15 17:28N 45°51' W 084°37'0 0.2
2017-Nov-15 16:53N 45°51' W 084°37'5 4.4
2017-Nov-15 15:49N 45°52' W 084°43'5 4.8
2017-Nov-15 14:51N 45°51' W 084°37'4 3.8
2017-Nov-15 13:46N 45°52' W 084°43'415.9
2017-Nov-15 13:30N 45°51' W 084°37'0 0.0
2017-Nov-15 13:00N 45°51' W 084°37'4 0.3
2017-Nov-14 22:18N 45°52' W 084°43'4 4.2
2017-Nov-14 21:16N 45°51' W 084°37'4 4.3
2017-Nov-14 20:16N 45°52' W 084°43'4 4.2
2017-Nov-14 19:16N 45°51' W 084°37'4 2.8
2017-Nov-14 17:44N 45°52' W 084°43'4 4.6
2017-Nov-14 16:47N 45°51' W 084°37'4 4.2
2017-Nov-14 15:45N 45°52' W 084°43'4 4.7
2017-Nov-14 14:48N 45°51' W 084°37'4 4.2
2017-Nov-14 13:45N 45°52' W 084°43'4 5.0
2017-Nov-14 12:52N 45°51' W 084°37'4 0.3
2017-Nov-13 22:15N 45°52' W 084°43'0 0.0
2017-Nov-12 22:15N 45°52' W 084°43'5 4.6
2017-Nov-12 21:15N 45°51' W 084°37'5 4.6
2017-Nov-12 20:15N 45°52' W 084°43'5 4.7
2017-Nov-12 19:17N 45°51' W 084°37'4 2.9
2017-Nov-12 17:46N 45°52' W 084°43'4 4.5
2017-Nov-12 16:47N 45°51' W 084°37'5 4.7
2017-Nov-12 15:48N 45°52' W 084°43'5 4.6
2017-Nov-12 14:48N 45°51' W 084°37'5 4.4
2017-Nov-12 13:45N 45°52' W 084°43'5 5.1
2017-Nov-12 12:51N 45°51' W 084°37'4 0.3
2017-Nov-11 22:15N 45°52' W 084°43'5 4.7
2017-Nov-11 21:16N 45°51' W 084°37'5 4.7
2017-Nov-11 20:17N 45°52' W 084°43'516.9
2017-Nov-11 20:00N 45°51' W 084°37'0 0.0
2017-Nov-11 19:29N 45°51' W 084°37'5 2.7
2017-Nov-11 17:47N 45°52' W 084°43'5 4.6
2017-Nov-11 16:47N 45°51' W 084°37'5 4.7
2017-Nov-11 15:47N 45°52' W 084°43'5 4.7
2017-Nov-11 14:48N 45°51' W 084°37'5 4.6
2017-Nov-11 13:47N 45°52' W 084°43'5 4.9
2017-Nov-11 12:51N 45°51' W 084°37'5 0.3
2017-Nov-10 22:13N 45°52' W 084°43'5 5.0
2017-Nov-10 21:17N 45°51' W 084°37'5 4.6
2017-Nov-10 20:16N 45°52' W 084°43'5 5.8
2017-Nov-10 19:28N 45°51' W 084°37'5 2.7
2017-Nov-10 17:48N 45°52' W 084°43'5 5.1
2017-Nov-10 16:53N 45°51' W 084°37'5 4.3
2017-Nov-10 15:47N 45°52' W 084°43'5 4.8
2017-Nov-10 14:50N 45°51' W 084°37'5 4.5
2017-Nov-10 13:49N 45°52' W 084°43'5 4.9
2017-Nov-10 12:53N 45°51' W 084°37'5 0.3
2017-Nov-09 23:02N 45°52' W 084°43'127.5
2017-Nov-09 23:00N 45°52' W 084°42'1 1.4
2017-Nov-09 22:29N 45°52' W 084°41'3 2.8
2017-Nov-09 21:21N 45°51' W 084°37'5 4.2
2017-Nov-09 20:16N 45°52' W 084°43'5 5.0
2017-Nov-09 19:19N 45°51' W 084°37'5 3.0
2017-Nov-09 17:46N 45°52' W 084°43'5 4.8
2017-Nov-09 16:49N 45°51' W 084°37'4 3.6
2017-Nov-09 15:44N 45°52' W 084°42'4 4.1
2017-Nov-09 14:51N 45°51' W 084°37'5 4.3
2017-Nov-09 13:48N 45°52' W 084°43'5 4.9
2017-Nov-09 12:51N 45°51' W 084°37'4 0.3
2017-Nov-08 22:15N 45°52' W 084°43'4 4.8
2017-Nov-08 21:21N 45°51' W 084°37'4 4.0
2017-Nov-08 20:17N 45°52' W 084°43'4 4.5
2017-Nov-08 19:18N 45°51' W 084°37'4 2.3
2017-Nov-08 17:44N 45°51' W 084°42'4 4.0
2017-Nov-08 16:50N 45°51' W 084°37'5 4.5
2017-Nov-08 15:49N 45°52' W 084°43'5 4.8
2017-Nov-08 14:51N 45°51' W 084°37'4 3.4
2017-Nov-08 13:44N 45°52' W 084°42'4 4.3
2017-Nov-08 12:49N 45°51' W 084°37'4 0.3
2017-Nov-07 22:15N 45°52' W 084°42'4 4.2
2017-Nov-07 21:19N 45°51' W 084°37'  
Track history (hours):
 
Tides and Currents Weather Stations Pressure Air Temp Water Temp Dewpoint Dewpoint Depression Visibility Wind Speed Wind Dir Waves Ship Positions

Mackinac Express

Owner: STAR LINE - MACKINAC ISLAND PASS SERVICE, Saint Ignac, MI. More information available from US FCC via Universal Licensing System and Coast Guard Vessel Documentation Center.

Last reported at 2017-Nov-17 20:19 UTC. Time now 2017-Nov-17 21:14 UTC.
Position N 45°52' W 084°43'.

MMSI: 367745540.

Date/timePositionNaut miles runAvg speedWind from/ knotsBaromVisibWave heightAir tempDewpointWater temp
2017-Nov-17 20:19N 45°52' W 084°43'5 4.6
2017-Nov-17 19:18N 45°51' W 084°37'5 3.0
2017-Nov-17 17:48N 45°52' W 084°43'5 4.7
2017-Nov-17 16:51N 45°51' W 084°37'5 4.4
2017-Nov-17 15:48N 45°52' W 084°43'5 4.7
2017-Nov-17 14:49N 45°51' W 084°37'4 4.3
2017-Nov-17 13:48N 45°52' W 084°43'4 4.8
2017-Nov-17 12:52N 45°51' W 084°37'5 0.3
2017-Nov-16 22:18N 45°52' W 084°43'5 4.6
2017-Nov-16 21:19N 45°51' W 084°37'4 4.3
2017-Nov-16 20:19N 45°52' W 084°43'4 4.3
2017-Nov-16 19:19N 45°51' W 084°37'5 2.9
2017-Nov-16 17:45N 45°52' W 084°43'5 5.2
2017-Nov-16 16:53N 45°51' W 084°37'4 4.0
2017-Nov-16 15:49N 45°52' W 084°43'4 4.4
2017-Nov-16 14:51N 45°51' W 084°37'4 4.1
2017-Nov-16 13:48N 45°52' W 084°43'4 3.8
2017-Nov-16 12:48N 45°51' W 084°38'4 0.3
2017-Nov-15 22:14N 45°52' W 084°43'418.2
2017-Nov-15 22:00N 45°51' W 084°37'0 0.1
2017-Nov-15 21:18N 45°51' W 084°37'4 4.2
2017-Nov-15 20:16N 45°52' W 084°43'4 4.7
2017-Nov-15 19:19N 45°51' W 084°37'5 3.1
2017-Nov-15 17:48N 45°52' W 084°43'513.6
2017-Nov-15 17:28N 45°51' W 084°37'0 0.2
2017-Nov-15 16:53N 45°51' W 084°37'5 4.4
2017-Nov-15 15:49N 45°52' W 084°43'5 4.8
2017-Nov-15 14:51N 45°51' W 084°37'4 3.8
2017-Nov-15 13:46N 45°52' W 084°43'415.9
2017-Nov-15 13:30N 45°51' W 084°37'0 0.0
2017-Nov-15 13:00N 45°51' W 084°37'4 0.3
2017-Nov-14 22:18N 45°52' W 084°43'4 4.2
2017-Nov-14 21:16N 45°51' W 084°37'4 4.3
2017-Nov-14 20:16N 45°52' W 084°43'4 4.2
2017-Nov-14 19:16N 45°51' W 084°37'4 2.8
2017-Nov-14 17:44N 45°52' W 084°43'4 4.6
2017-Nov-14 16:47N 45°51' W 084°37'4 4.2
2017-Nov-14 15:45N 45°52' W 084°43'4 4.7
2017-Nov-14 14:48N 45°51' W 084°37'4 4.2
2017-Nov-14 13:45N 45°52' W 084°43'4 5.0
2017-Nov-14 12:52N 45°51' W 084°37'4 0.3
2017-Nov-13 22:15N 45°52' W 084°43'0 0.0
2017-Nov-12 22:15N 45°52' W 084°43'5 4.6
2017-Nov-12 21:15N 45°51' W 084°37'5 4.6
2017-Nov-12 20:15N 45°52' W 084°43'5 4.7
2017-Nov-12 19:17N 45°51' W 084°37'4 2.9
2017-Nov-12 17:46N 45°52' W 084°43'4 4.5
2017-Nov-12 16:47N 45°51' W 084°37'5 4.7
2017-Nov-12 15:48N 45°52' W 084°43'5 4.6
2017-Nov-12 14:48N 45°51' W 084°37'5 4.4
2017-Nov-12 13:45N 45°52' W 084°43'5 5.1
2017-Nov-12 12:51N 45°51' W 084°37'4 0.3
2017-Nov-11 22:15N 45°52' W 084°43'5 4.7
2017-Nov-11 21:16N 45°51' W 084°37'5 4.7
2017-Nov-11 20:17N 45°52' W 084°43'516.9
2017-Nov-11 20:00N 45°51' W 084°37'0 0.0
2017-Nov-11 19:29N 45°51' W 084°37'5 2.7
2017-Nov-11 17:47N 45°52' W 084°43'5 4.6
2017-Nov-11 16:47N 45°51' W 084°37'5 4.7
2017-Nov-11 15:47N 45°52' W 084°43'5 4.7
2017-Nov-11 14:48N 45°51' W 084°37'5 4.6
2017-Nov-11 13:47N 45°52' W 084°43'5 4.9
2017-Nov-11 12:51N 45°51' W 084°37'5 0.3
2017-Nov-10 22:13N 45°52' W 084°43'5 5.0
2017-Nov-10 21:17N 45°51' W 084°37'5 4.6
2017-Nov-10 20:16N 45°52' W 084°43'5 5.8
2017-Nov-10 19:28N 45°51' W 084°37'5 2.7
2017-Nov-10 17:48N 45°52' W 084°43'5 5.1
2017-Nov-10 16:53N 45°51' W 084°37'5 4.3
2017-Nov-10 15:47N 45°52' W 084°43'5 4.8
2017-Nov-10 14:50N 45°51' W 084°37'5 4.5
2017-Nov-10 13:49N 45°52' W 084°43'5 4.9
2017-Nov-10 12:53N 45°51' W 084°37'5 0.3
2017-Nov-09 23:02N 45°52' W 084°43'127.5
2017-Nov-09 23:00N 45°52' W 084°42'1 1.4
2017-Nov-09 22:29N 45°52' W 084°41'3 2.8
2017-Nov-09 21:21N 45°51' W 084°37'5 4.2
2017-Nov-09 20:16N 45°52' W 084°43'5 5.0
2017-Nov-09 19:19N 45°51' W 084°37'5 3.0
2017-Nov-09 17:46N 45°52' W 084°43'5 4.8
2017-Nov-09 16:49N 45°51' W 084°37'4 3.6
2017-Nov-09 15:44N 45°52' W 084°42'4 4.1
2017-Nov-09 14:51N 45°51' W 084°37'5 4.3
2017-Nov-09 13:48N 45°52' W 084°43'5 4.9
2017-Nov-09 12:51N 45°51' W 084°37'4 0.3
2017-Nov-08 22:15N 45°52' W 084°43'4 4.8
2017-Nov-08 21:21N 45°51' W 084°37'4 4.0
2017-Nov-08 20:17N 45°52' W 084°43'4 4.5
2017-Nov-08 19:18N 45°51' W 084°37'4 2.3
2017-Nov-08 17:44N 45°51' W 084°42'4 4.0
2017-Nov-08 16:50N 45°51' W 084°37'5 4.5
2017-Nov-08 15:49N 45°52' W 084°43'5 4.8
2017-Nov-08 14:51N 45°51' W 084°37'4 3.4
2017-Nov-08 13:44N 45°52' W 084°42'4 4.3
2017-Nov-08 12:49N 45°51' W 084°37'4 0.3
2017-Nov-07 22:15N 45°52' W 084°42'4 4.2
2017-Nov-07 21:19N 45°51' W 084°37'  

Dump ship's entire track history